sensor_id;sensor_type;location;lat;lon;timestamp;P1;durP1;ratioP1;P2;durP2;ratioP2
68870;SDS011;55906;52.278;6.808;2023-04-24T00:00:31;8.55;;;6.53;;
68870;SDS011;55906;52.278;6.808;2023-04-24T00:02:58;8.02;;;6.20;;
68870;SDS011;55906;52.278;6.808;2023-04-24T00:05:26;10.63;;;6.72;;
68870;SDS011;55906;52.278;6.808;2023-04-24T00:07:53;7.50;;;6.32;;
68870;SDS011;55906;52.278;6.808;2023-04-24T00:10:21;9.23;;;6.73;;
68870;SDS011;55906;52.278;6.808;2023-04-24T00:12:47;8.10;;;6.22;;
68870;SDS011;55906;52.278;6.808;2023-04-24T00:15:14;8.25;;;6.30;;
68870;SDS011;55906;52.278;6.808;2023-04-24T00:17:40;8.75;;;6.85;;
68870;SDS011;55906;52.278;6.808;2023-04-24T00:20:07;8.60;;;6.82;;
68870;SDS011;55906;52.278;6.808;2023-04-24T00:22:37;9.63;;;8.00;;
68870;SDS011;55906;52.278;6.808;2023-04-24T00:25:04;7.93;;;6.22;;
68870;SDS011;55906;52.278;6.808;2023-04-24T00:27:31;9.52;;;6.63;;
68870;SDS011;55906;52.278;6.808;2023-04-24T00:30:00;9.80;;;7.00;;
68870;SDS011;55906;52.278;6.808;2023-04-24T00:32:26;11.52;;;7.72;;
68870;SDS011;55906;52.278;6.808;2023-04-24T00:34:53;9.80;;;7.37;;
68870;SDS011;55906;52.278;6.808;2023-04-24T00:37:19;10.90;;;7.72;;
68870;SDS011;55906;52.278;6.808;2023-04-24T00:39:47;10.10;;;8.18;;
68870;SDS011;55906;52.278;6.808;2023-04-24T00:42:14;9.73;;;7.93;;
68870;SDS011;55906;52.278;6.808;2023-04-24T00:44:41;9.75;;;7.72;;
68870;SDS011;55906;52.278;6.808;2023-04-24T00:47:07;10.60;;;7.53;;
68870;SDS011;55906;52.278;6.808;2023-04-24T00:49:34;9.65;;;7.18;;
68870;SDS011;55906;52.278;6.808;2023-04-24T00:52:01;11.00;;;7.53;;
68870;SDS011;55906;52.278;6.808;2023-04-24T00:54:32;10.45;;;7.88;;
68870;SDS011;55906;52.278;6.808;2023-04-24T00:57:00;12.00;;;8.77;;
68870;SDS011;55906;52.278;6.808;2023-04-24T00:59:27;9.60;;;7.40;;
68870;SDS011;55906;52.278;6.808;2023-04-24T01:01:54;14.35;;;8.85;;
68870;SDS011;55906;52.278;6.808;2023-04-24T01:04:22;11.73;;;8.30;;
68870;SDS011;55906;52.278;6.808;2023-04-24T01:06:48;12.68;;;8.80;;
68870;SDS011;55906;52.278;6.808;2023-04-24T01:09:16;15.20;;;8.65;;
68870;SDS011;55906;52.278;6.808;2023-04-24T01:11:43;12.47;;;8.60;;
68870;SDS011;55906;52.278;6.808;2023-04-24T01:14:12;10.93;;;8.23;;
68870;SDS011;55906;52.278;6.808;2023-04-24T01:16:38;12.57;;;8.60;;
68870;SDS011;55906;52.278;6.808;2023-04-24T01:19:06;11.93;;;8.32;;
68870;SDS011;55906;52.278;6.808;2023-04-24T01:21:34;13.18;;;9.75;;
68870;SDS011;55906;52.278;6.808;2023-04-24T01:24:04;14.10;;;10.30;;
68870;SDS011;55906;52.278;6.808;2023-04-24T01:26:31;15.15;;;9.65;;
68870;SDS011;55906;52.278;6.808;2023-04-24T01:28:58;16.45;;;10.38;;
68870;SDS011;55906;52.278;6.808;2023-04-24T01:31:25;14.38;;;10.10;;
68870;SDS011;55906;52.278;6.808;2023-04-24T01:33:52;15.40;;;10.65;;
68870;SDS011;55906;52.278;6.808;2023-04-24T01:36:19;16.67;;;10.83;;
68870;SDS011;55906;52.278;6.808;2023-04-24T01:38:47;15.13;;;10.93;;
68870;SDS011;55906;52.278;6.808;2023-04-24T01:41:15;16.60;;;11.57;;
68870;SDS011;55906;52.278;6.808;2023-04-24T01:43:42;18.92;;;11.23;;
68870;SDS011;55906;52.278;6.808;2023-04-24T01:46:09;13.15;;;9.77;;
68870;SDS011;55906;52.278;6.808;2023-04-24T01:48:35;14.87;;;9.80;;
68870;SDS011;55906;52.278;6.808;2023-04-24T01:51:02;13.60;;;9.20;;
68870;SDS011;55906;52.278;6.808;2023-04-24T01:53:29;14.80;;;10.35;;
68870;SDS011;55906;52.278;6.808;2023-04-24T01:55:55;15.48;;;10.80;;
68870;SDS011;55906;52.278;6.808;2023-04-24T01:58:24;14.05;;;9.98;;
68870;SDS011;55906;52.278;6.808;2023-04-24T02:00:51;12.67;;;9.20;;
68870;SDS011;55906;52.278;6.808;2023-04-24T02:03:18;12.80;;;8.93;;
68870;SDS011;55906;52.278;6.808;2023-04-24T02:05:44;14.82;;;8.68;;
68870;SDS011;55906;52.278;6.808;2023-04-24T02:08:11;11.85;;;8.60;;
68870;SDS011;55906;52.278;6.808;2023-04-24T02:10:38;13.05;;;8.73;;
68870;SDS011;55906;52.278;6.808;2023-04-24T02:13:04;13.60;;;10.07;;
68870;SDS011;55906;52.278;6.808;2023-04-24T02:15:32;18.95;;;9.35;;
68870;SDS011;55906;52.278;6.808;2023-04-24T02:17:59;15.05;;;9.57;;
68870;SDS011;55906;52.278;6.808;2023-04-24T02:20:26;14.85;;;9.23;;
68870;SDS011;55906;52.278;6.808;2023-04-24T02:22:52;14.70;;;9.52;;
68870;SDS011;55906;52.278;6.808;2023-04-24T02:25:20;13.80;;;9.47;;
68870;SDS011;55906;52.278;6.808;2023-04-24T02:27:46;15.32;;;10.15;;
68870;SDS011;55906;52.278;6.808;2023-04-24T02:30:13;15.85;;;10.40;;
68870;SDS011;55906;52.278;6.808;2023-04-24T02:32:41;16.60;;;10.65;;
68870;SDS011;55906;52.278;6.808;2023-04-24T02:35:08;15.93;;;10.70;;
68870;SDS011;55906;52.278;6.808;2023-04-24T02:37:35;17.57;;;11.30;;
68870;SDS011;55906;52.278;6.808;2023-04-24T02:40:01;15.52;;;10.45;;
68870;SDS011;55906;52.278;6.808;2023-04-24T02:42:29;19.55;;;12.02;;
68870;SDS011;55906;52.278;6.808;2023-04-24T02:44:55;19.92;;;11.48;;
68870;SDS011;55906;52.278;6.808;2023-04-24T02:47:22;20.88;;;13.05;;
68870;SDS011;55906;52.278;6.808;2023-04-24T02:49:50;19.70;;;12.70;;
68870;SDS011;55906;52.278;6.808;2023-04-24T02:52:16;19.05;;;12.48;;
68870;SDS011;55906;52.278;6.808;2023-04-24T02:54:43;18.90;;;12.65;;
68870;SDS011;55906;52.278;6.808;2023-04-24T02:57:10;20.25;;;13.43;;
68870;SDS011;55906;52.278;6.808;2023-04-24T02:59:36;19.02;;;12.98;;
68870;SDS011;55906;52.278;6.808;2023-04-24T03:02:03;20.77;;;13.53;;
68870;SDS011;55906;52.278;6.808;2023-04-24T03:04:30;19.95;;;12.85;;
68870;SDS011;55906;52.278;6.808;2023-04-24T03:06:58;18.33;;;12.82;;
68870;SDS011;55906;52.278;6.808;2023-04-24T03:09:26;20.45;;;12.57;;
68870;SDS011;55906;52.278;6.808;2023-04-24T03:11:53;20.48;;;12.73;;
68870;SDS011;55906;52.278;6.808;2023-04-24T03:14:20;17.47;;;11.83;;
68870;SDS011;55906;52.278;6.808;2023-04-24T03:16:47;24.20;;;12.85;;
68870;SDS011;55906;52.278;6.808;2023-04-24T03:19:13;18.48;;;12.27;;
68870;SDS011;55906;52.278;6.808;2023-04-24T03:21:40;19.38;;;12.50;;
68870;SDS011;55906;52.278;6.808;2023-04-24T03:24:08;20.02;;;13.35;;
68870;SDS011;55906;52.278;6.808;2023-04-24T03:26:35;19.40;;;12.97;;
68870;SDS011;55906;52.278;6.808;2023-04-24T03:29:01;21.77;;;13.40;;
68870;SDS011;55906;52.278;6.808;2023-04-24T03:31:28;20.23;;;12.95;;
68870;SDS011;55906;52.278;6.808;2023-04-24T03:33:55;20.27;;;13.07;;
68870;SDS011;55906;52.278;6.808;2023-04-24T03:36:21;21.35;;;13.32;;
68870;SDS011;55906;52.278;6.808;2023-04-24T03:38:48;18.73;;;12.10;;
68870;SDS011;55906;52.278;6.808;2023-04-24T03:41:16;19.52;;;11.95;;
68870;SDS011;55906;52.278;6.808;2023-04-24T03:43:42;19.33;;;13.20;;
68870;SDS011;55906;52.278;6.808;2023-04-24T03:46:09;20.02;;;13.30;;
68870;SDS011;55906;52.278;6.808;2023-04-24T03:48:36;19.73;;;12.30;;
68870;SDS011;55906;52.278;6.808;2023-04-24T03:51:02;16.53;;;11.83;;
68870;SDS011;55906;52.278;6.808;2023-04-24T03:53:29;22.08;;;13.43;;
68870;SDS011;55906;52.278;6.808;2023-04-24T03:55:56;21.23;;;12.20;;
68870;SDS011;55906;52.278;6.808;2023-04-24T03:58:24;18.02;;;11.88;;
68870;SDS011;55906;52.278;6.808;2023-04-24T04:00:50;18.10;;;12.10;;
68870;SDS011;55906;52.278;6.808;2023-04-24T04:03:17;19.73;;;12.97;;
68870;SDS011;55906;52.278;6.808;2023-04-24T04:05:44;19.17;;;12.70;;
68870;SDS011;55906;52.278;6.808;2023-04-24T04:08:10;21.35;;;14.48;;
68870;SDS011;55906;52.278;6.808;2023-04-24T04:10:37;22.73;;;14.73;;
68870;SDS011;55906;52.278;6.808;2023-04-24T04:13:03;21.88;;;13.38;;
68870;SDS011;55906;52.278;6.808;2023-04-24T04:15:32;20.40;;;14.13;;
68870;SDS011;55906;52.278;6.808;2023-04-24T04:17:59;22.63;;;14.00;;
68870;SDS011;55906;52.278;6.808;2023-04-24T04:20:25;22.88;;;14.50;;
68870;SDS011;55906;52.278;6.808;2023-04-24T04:22:52;20.48;;;13.73;;
68870;SDS011;55906;52.278;6.808;2023-04-24T04:25:19;22.10;;;14.70;;
68870;SDS011;55906;52.278;6.808;2023-04-24T04:27:45;23.63;;;14.53;;
68870;SDS011;55906;52.278;6.808;2023-04-24T04:30:12;21.60;;;14.35;;
68870;SDS011;55906;52.278;6.808;2023-04-24T04:32:41;22.25;;;14.55;;
68870;SDS011;55906;52.278;6.808;2023-04-24T04:35:08;25.25;;;15.10;;
68870;SDS011;55906;52.278;6.808;2023-04-24T04:37:34;24.17;;;15.05;;
68870;SDS011;55906;52.278;6.808;2023-04-24T04:40:01;25.47;;;16.80;;
68870;SDS011;55906;52.278;6.808;2023-04-24T04:42:31;23.73;;;14.57;;
68870;SDS011;55906;52.278;6.808;2023-04-24T04:44:59;25.55;;;16.35;;
68870;SDS011;55906;52.278;6.808;2023-04-24T04:47:25;27.48;;;15.80;;
68870;SDS011;55906;52.278;6.808;2023-04-24T04:49:55;25.80;;;15.93;;
68870;SDS011;55906;52.278;6.808;2023-04-24T04:52:21;24.93;;;16.10;;
68870;SDS011;55906;52.278;6.808;2023-04-24T04:54:50;25.85;;;16.85;;
68870;SDS011;55906;52.278;6.808;2023-04-24T04:57:17;29.35;;;17.20;;
68870;SDS011;55906;52.278;6.808;2023-04-24T04:59:43;31.15;;;17.63;;
68870;SDS011;55906;52.278;6.808;2023-04-24T05:02:10;27.70;;;16.67;;
68870;SDS011;55906;52.278;6.808;2023-04-24T05:04:36;28.90;;;17.57;;
68870;SDS011;55906;52.278;6.808;2023-04-24T05:07:04;32.28;;;19.00;;
68870;SDS011;55906;52.278;6.808;2023-04-24T05:09:31;29.33;;;17.58;;
68870;SDS011;55906;52.278;6.808;2023-04-24T05:11:58;29.60;;;18.13;;
68870;SDS011;55906;52.278;6.808;2023-04-24T05:14:25;28.92;;;17.63;;
68870;SDS011;55906;52.278;6.808;2023-04-24T05:16:52;27.20;;;17.20;;
68870;SDS011;55906;52.278;6.808;2023-04-24T05:19:18;29.52;;;17.73;;
68870;SDS011;55906;52.278;6.808;2023-04-24T05:21:45;29.88;;;18.90;;
68870;SDS011;55906;52.278;6.808;2023-04-24T05:24:13;28.38;;;18.13;;
68870;SDS011;55906;52.278;6.808;2023-04-24T05:26:39;26.08;;;17.10;;
68870;SDS011;55906;52.278;6.808;2023-04-24T05:29:06;28.03;;;17.53;;
68870;SDS011;55906;52.278;6.808;2023-04-24T05:31:33;30.30;;;17.58;;
68870;SDS011;55906;52.278;6.808;2023-04-24T05:33:59;30.65;;;17.85;;
68870;SDS011;55906;52.278;6.808;2023-04-24T05:36:26;27.67;;;17.85;;
68870;SDS011;55906;52.278;6.808;2023-04-24T05:38:53;27.90;;;18.10;;
68870;SDS011;55906;52.278;6.808;2023-04-24T05:41:21;26.87;;;16.80;;
68870;SDS011;55906;52.278;6.808;2023-04-24T05:43:48;32.60;;;17.90;;
68870;SDS011;55906;52.278;6.808;2023-04-24T05:46:15;19.58;;;12.45;;
68870;SDS011;55906;52.278;6.808;2023-04-24T05:48:41;27.42;;;15.60;;
68870;SDS011;55906;52.278;6.808;2023-04-24T05:51:08;25.90;;;16.30;;
68870;SDS011;55906;52.278;6.808;2023-04-24T05:53:35;24.73;;;16.57;;
68870;SDS011;55906;52.278;6.808;2023-04-24T05:56:02;27.60;;;16.25;;
68870;SDS011;55906;52.278;6.808;2023-04-24T05:58:30;29.92;;;17.27;;
68870;SDS011;55906;52.278;6.808;2023-04-24T06:00:56;25.23;;;16.00;;
68870;SDS011;55906;52.278;6.808;2023-04-24T06:03:23;30.42;;;16.85;;
68870;SDS011;55906;52.278;6.808;2023-04-24T06:05:50;25.60;;;16.13;;
68870;SDS011;55906;52.278;6.808;2023-04-24T06:08:17;25.50;;;16.55;;
68870;SDS011;55906;52.278;6.808;2023-04-24T06:10:44;23.00;;;15.00;;
68870;SDS011;55906;52.278;6.808;2023-04-24T06:13:10;23.83;;;15.10;;
68870;SDS011;55906;52.278;6.808;2023-04-24T06:15:39;27.48;;;17.05;;
68870;SDS011;55906;52.278;6.808;2023-04-24T06:18:05;25.17;;;16.27;;
68870;SDS011;55906;52.278;6.808;2023-04-24T06:20:32;27.10;;;17.20;;
68870;SDS011;55906;52.278;6.808;2023-04-24T06:22:59;24.98;;;17.30;;
68870;SDS011;55906;52.278;6.808;2023-04-24T06:25:25;26.65;;;17.05;;
68870;SDS011;55906;52.278;6.808;2023-04-24T06:27:52;26.13;;;17.95;;
68870;SDS011;55906;52.278;6.808;2023-04-24T06:30:19;24.63;;;16.43;;
68870;SDS011;55906;52.278;6.808;2023-04-24T06:32:47;29.52;;;16.73;;
68870;SDS011;55906;52.278;6.808;2023-04-24T06:35:14;25.35;;;15.88;;
68870;SDS011;55906;52.278;6.808;2023-04-24T06:37:41;23.90;;;14.65;;
68870;SDS011;55906;52.278;6.808;2023-04-24T06:40:09;23.90;;;15.00;;
68870;SDS011;55906;52.278;6.808;2023-04-24T06:42:36;25.77;;;15.13;;
68870;SDS011;55906;52.278;6.808;2023-04-24T06:45:03;25.77;;;15.10;;
68870;SDS011;55906;52.278;6.808;2023-04-24T06:47:30;23.38;;;15.13;;
68870;SDS011;55906;52.278;6.808;2023-04-24T06:49:59;22.45;;;14.57;;
68870;SDS011;55906;52.278;6.808;2023-04-24T06:52:25;25.73;;;16.00;;
68870;SDS011;55906;52.278;6.808;2023-04-24T06:54:52;23.03;;;14.67;;
68870;SDS011;55906;52.278;6.808;2023-04-24T06:57:19;25.08;;;15.00;;
68870;SDS011;55906;52.278;6.808;2023-04-24T06:59:46;26.13;;;14.27;;
68870;SDS011;55906;52.278;6.808;2023-04-24T07:02:12;24.27;;;14.65;;
68870;SDS011;55906;52.278;6.808;2023-04-24T07:04:39;23.40;;;14.93;;
68870;SDS011;55906;52.278;6.808;2023-04-24T07:07:08;20.73;;;13.57;;
68870;SDS011;55906;52.278;6.808;2023-04-24T07:09:38;22.80;;;13.70;;
68870;SDS011;55906;52.278;6.808;2023-04-24T07:12:07;19.77;;;13.73;;
68870;SDS011;55906;52.278;6.808;2023-04-24T07:14:35;22.98;;;14.48;;
68870;SDS011;55906;52.278;6.808;2023-04-24T07:17:02;20.92;;;13.25;;
68870;SDS011;55906;52.278;6.808;2023-04-24T07:19:28;20.50;;;12.60;;
68870;SDS011;55906;52.278;6.808;2023-04-24T07:21:55;20.52;;;12.77;;
68870;SDS011;55906;52.278;6.808;2023-04-24T07:24:24;20.38;;;12.30;;
68870;SDS011;55906;52.278;6.808;2023-04-24T07:26:51;19.38;;;13.25;;
68870;SDS011;55906;52.278;6.808;2023-04-24T07:29:18;19.38;;;12.73;;
68870;SDS011;55906;52.278;6.808;2023-04-24T07:31:46;18.73;;;12.70;;
68870;SDS011;55906;52.278;6.808;2023-04-24T07:34:12;17.52;;;12.02;;
68870;SDS011;55906;52.278;6.808;2023-04-24T07:36:40;18.52;;;11.98;;
68870;SDS011;55906;52.278;6.808;2023-04-24T07:39:07;21.33;;;12.52;;
68870;SDS011;55906;52.278;6.808;2023-04-24T07:41:35;16.92;;;11.52;;
68870;SDS011;55906;52.278;6.808;2023-04-24T07:44:02;17.83;;;11.63;;
68870;SDS011;55906;52.278;6.808;2023-04-24T07:46:29;16.40;;;11.43;;
68870;SDS011;55906;52.278;6.808;2023-04-24T07:48:56;15.95;;;10.48;;
68870;SDS011;55906;52.278;6.808;2023-04-24T07:51:24;15.88;;;11.05;;
68870;SDS011;55906;52.278;6.808;2023-04-24T07:53:52;15.10;;;10.15;;
68870;SDS011;55906;52.278;6.808;2023-04-24T07:56:19;18.23;;;10.13;;
68870;SDS011;55906;52.278;6.808;2023-04-24T07:58:47;12.77;;;9.25;;
68870;SDS011;55906;52.278;6.808;2023-04-24T08:01:14;14.00;;;9.10;;
68870;SDS011;55906;52.278;6.808;2023-04-24T08:03:41;14.73;;;8.93;;
68870;SDS011;55906;52.278;6.808;2023-04-24T08:06:07;12.60;;;8.50;;
68870;SDS011;55906;52.278;6.808;2023-04-24T08:08:34;12.13;;;8.20;;
68870;SDS011;55906;52.278;6.808;2023-04-24T08:11:00;15.27;;;8.73;;
68870;SDS011;55906;52.278;6.808;2023-04-24T08:13:27;14.25;;;7.93;;
68870;SDS011;55906;52.278;6.808;2023-04-24T08:15:55;19.83;;;8.15;;
68870;SDS011;55906;52.278;6.808;2023-04-24T08:18:22;12.00;;;7.82;;
68870;SDS011;55906;52.278;6.808;2023-04-24T08:20:49;13.67;;;8.53;;
68870;SDS011;55906;52.278;6.808;2023-04-24T08:23:15;12.85;;;9.20;;
68870;SDS011;55906;52.278;6.808;2023-04-24T08:25:42;12.18;;;8.20;;
68870;SDS011;55906;52.278;6.808;2023-04-24T08:28:09;13.70;;;7.68;;
68870;SDS011;55906;52.278;6.808;2023-04-24T08:30:36;12.57;;;8.43;;
68870;SDS011;55906;52.278;6.808;2023-04-24T08:33:04;11.93;;;8.07;;
68870;SDS011;55906;52.278;6.808;2023-04-24T08:35:32;11.70;;;7.35;;
68870;SDS011;55906;52.278;6.808;2023-04-24T08:37:58;11.10;;;7.20;;
68870;SDS011;55906;52.278;6.808;2023-04-24T08:40:27;12.13;;;7.53;;
68870;SDS011;55906;52.278;6.808;2023-04-24T08:42:55;12.90;;;7.45;;
68870;SDS011;55906;52.278;6.808;2023-04-24T08:45:22;10.20;;;7.00;;
68870;SDS011;55906;52.278;6.808;2023-04-24T08:47:51;10.27;;;6.30;;
68870;SDS011;55906;52.278;6.808;2023-04-24T08:50:20;9.32;;;6.32;;
68870;SDS011;55906;52.278;6.808;2023-04-24T08:52:48;8.85;;;6.18;;
68870;SDS011;55906;52.278;6.808;2023-04-24T08:55:16;8.23;;;5.60;;
68870;SDS011;55906;52.278;6.808;2023-04-24T08:57:43;9.00;;;6.20;;
68870;SDS011;55906;52.278;6.808;2023-04-24T09:00:11;8.63;;;5.72;;
68870;SDS011;55906;52.278;6.808;2023-04-24T09:02:39;8.13;;;5.45;;
68870;SDS011;55906;52.278;6.808;2023-04-24T09:05:08;12.43;;;5.88;;
68870;SDS011;55906;52.278;6.808;2023-04-24T09:07:37;9.02;;;5.47;;
68870;SDS011;55906;52.278;6.808;2023-04-24T09:10:07;8.93;;;5.87;;
68870;SDS011;55906;52.278;6.808;2023-04-24T09:12:34;8.23;;;5.43;;
68870;SDS011;55906;52.278;6.808;2023-04-24T09:15:01;6.20;;;4.43;;
68870;SDS011;55906;52.278;6.808;2023-04-24T09:17:29;16.85;;;4.90;;
68870;SDS011;55906;52.278;6.808;2023-04-24T09:19:56;6.63;;;4.53;;
68870;SDS011;55906;52.278;6.808;2023-04-24T09:22:23;6.40;;;4.47;;
68870;SDS011;55906;52.278;6.808;2023-04-24T09:25:00;7.22;;;4.90;;
68870;SDS011;55906;52.278;6.808;2023-04-24T09:27:29;7.95;;;5.00;;
68870;SDS011;55906;52.278;6.808;2023-04-24T09:29:57;11.23;;;5.88;;
68870;SDS011;55906;52.278;6.808;2023-04-24T09:32:25;12.18;;;6.78;;
68870;SDS011;55906;52.278;6.808;2023-04-24T09:35:04;10.53;;;7.47;;
68870;SDS011;55906;52.278;6.808;2023-04-24T09:37:35;12.68;;;8.27;;
68870;SDS011;55906;52.278;6.808;2023-04-24T09:40:11;14.38;;;8.57;;
68870;SDS011;55906;52.278;6.808;2023-04-24T09:42:38;13.88;;;9.93;;
68870;SDS011;55906;52.278;6.808;2023-04-24T09:45:08;13.23;;;9.15;;
68870;SDS011;55906;52.278;6.808;2023-04-24T09:47:36;13.90;;;8.03;;
68870;SDS011;55906;52.278;6.808;2023-04-24T09:50:09;13.25;;;8.57;;
68870;SDS011;55906;52.278;6.808;2023-04-24T09:52:39;13.20;;;9.90;;
68870;SDS011;55906;52.278;6.808;2023-04-24T09:55:11;13.70;;;9.63;;
68870;SDS011;55906;52.278;6.808;2023-04-24T09:57:52;16.98;;;9.75;;
68870;SDS011;55906;52.278;6.808;2023-04-24T10:00:23;14.63;;;9.80;;
68870;SDS011;55906;52.278;6.808;2023-04-24T10:02:55;14.60;;;9.38;;
68870;SDS011;55906;52.278;6.808;2023-04-24T10:05:23;17.63;;;10.90;;
68870;SDS011;55906;52.278;6.808;2023-04-24T10:07:51;15.43;;;9.23;;
68870;SDS011;55906;52.278;6.808;2023-04-24T10:10:24;13.55;;;9.20;;
68870;SDS011;55906;52.278;6.808;2023-04-24T10:12:51;15.27;;;8.60;;
68870;SDS011;55906;52.278;6.808;2023-04-24T10:15:17;19.15;;;10.65;;
68870;SDS011;55906;52.278;6.808;2023-04-24T10:17:46;17.23;;;9.23;;
68870;SDS011;55906;52.278;6.808;2023-04-24T10:20:17;16.10;;;9.60;;
68870;SDS011;55906;52.278;6.808;2023-04-24T10:22:45;14.48;;;8.88;;
68870;SDS011;55906;52.278;6.808;2023-04-24T10:25:16;13.43;;;8.40;;
68870;SDS011;55906;52.278;6.808;2023-04-24T10:27:46;15.93;;;9.18;;
68870;SDS011;55906;52.278;6.808;2023-04-24T10:30:14;13.15;;;8.07;;
68870;SDS011;55906;52.278;6.808;2023-04-24T10:32:42;16.65;;;8.95;;
68870;SDS011;55906;52.278;6.808;2023-04-24T10:35:08;14.10;;;8.20;;
68870;SDS011;55906;52.278;6.808;2023-04-24T10:37:39;19.37;;;9.83;;
68870;SDS011;55906;52.278;6.808;2023-04-24T10:40:07;14.30;;;8.40;;
68870;SDS011;55906;52.278;6.808;2023-04-24T10:42:39;16.20;;;8.95;;
68870;SDS011;55906;52.278;6.808;2023-04-24T10:45:10;11.13;;;7.80;;
68870;SDS011;55906;52.278;6.808;2023-04-24T10:47:42;9.85;;;6.78;;
68870;SDS011;55906;52.278;6.808;2023-04-24T10:50:09;10.03;;;7.00;;
68870;SDS011;55906;52.278;6.808;2023-04-24T10:52:45;10.20;;;6.53;;
68870;SDS011;55906;52.278;6.808;2023-04-24T10:55:13;10.02;;;5.68;;
68870;SDS011;55906;52.278;6.808;2023-04-24T10:57:45;9.02;;;5.30;;
68870;SDS011;55906;52.278;6.808;2023-04-24T11:00:29;9.90;;;5.93;;
68870;SDS011;55906;52.278;6.808;2023-04-24T11:02:56;10.20;;;5.70;;
68870;SDS011;55906;52.278;6.808;2023-04-24T11:05:41;11.38;;;5.70;;
68870;SDS011;55906;52.278;6.808;2023-04-24T11:08:21;11.30;;;5.38;;
68870;SDS011;55906;52.278;6.808;2023-04-24T11:10:56;10.43;;;5.70;;
68870;SDS011;55906;52.278;6.808;2023-04-24T11:13:25;8.45;;;4.97;;
68870;SDS011;55906;52.278;6.808;2023-04-24T11:16:14;9.50;;;5.10;;
68870;SDS011;55906;52.278;6.808;2023-04-24T11:18:42;11.52;;;5.22;;
68870;SDS011;55906;52.278;6.808;2023-04-24T11:21:11;10.98;;;5.32;;
68870;SDS011;55906;52.278;6.808;2023-04-24T11:23:38;13.77;;;5.97;;
68870;SDS011;55906;52.278;6.808;2023-04-24T11:26:12;9.93;;;5.13;;
68870;SDS011;55906;52.278;6.808;2023-04-24T11:28:46;11.27;;;4.90;;
68870;SDS011;55906;52.278;6.808;2023-04-24T11:34:08;11.88;;;5.22;;
68870;SDS011;55906;52.278;6.808;2023-04-24T11:36:35;13.70;;;6.18;;
68870;SDS011;55906;52.278;6.808;2023-04-24T11:39:03;11.20;;;5.40;;
68870;SDS011;55906;52.278;6.808;2023-04-24T11:41:30;11.93;;;5.57;;
68870;SDS011;55906;52.278;6.808;2023-04-24T11:43:56;12.27;;;5.57;;
68870;SDS011;55906;52.278;6.808;2023-04-24T11:46:26;11.50;;;5.60;;
68870;SDS011;55906;52.278;6.808;2023-04-24T11:48:55;12.20;;;5.45;;
68870;SDS011;55906;52.278;6.808;2023-04-24T11:51:22;12.82;;;4.50;;
68870;SDS011;55906;52.278;6.808;2023-04-24T11:53:50;8.80;;;4.80;;
68870;SDS011;55906;52.278;6.808;2023-04-24T11:56:17;9.57;;;4.68;;
68870;SDS011;55906;52.278;6.808;2023-04-24T11:58:45;13.35;;;5.03;;
68870;SDS011;55906;52.278;6.808;2023-04-24T12:01:11;11.80;;;5.22;;
68870;SDS011;55906;52.278;6.808;2023-04-24T12:03:38;12.15;;;5.35;;
68870;SDS011;55906;52.278;6.808;2023-04-24T12:06:07;15.53;;;5.47;;
68870;SDS011;55906;52.278;6.808;2023-04-24T12:08:34;10.35;;;4.43;;
68870;SDS011;55906;52.278;6.808;2023-04-24T12:11:01;10.80;;;5.10;;
68870;SDS011;55906;52.278;6.808;2023-04-24T12:13:29;9.25;;;4.65;;
68870;SDS011;55906;52.278;6.808;2023-04-24T12:15:56;7.53;;;4.60;;
68870;SDS011;55906;52.278;6.808;2023-04-24T12:18:23;10.47;;;4.57;;
68870;SDS011;55906;52.278;6.808;2023-04-24T12:20:50;11.88;;;5.63;;
68870;SDS011;55906;52.278;6.808;2023-04-24T12:23:27;8.38;;;4.53;;
68870;SDS011;55906;52.278;6.808;2023-04-24T12:25:59;11.18;;;5.05;;
68870;SDS011;55906;52.278;6.808;2023-04-24T12:28:33;10.85;;;5.22;;
68870;SDS011;55906;52.278;6.808;2023-04-24T12:31:01;11.33;;;5.10;;
68870;SDS011;55906;52.278;6.808;2023-04-24T12:33:32;9.70;;;4.70;;
68870;SDS011;55906;52.278;6.808;2023-04-24T12:35:59;12.52;;;5.50;;
68870;SDS011;55906;52.278;6.808;2023-04-24T12:38:29;8.77;;;4.53;;
68870;SDS011;55906;52.278;6.808;2023-04-24T12:41:02;9.77;;;5.38;;
68870;SDS011;55906;52.278;6.808;2023-04-24T12:43:30;10.53;;;5.07;;
68870;SDS011;55906;52.278;6.808;2023-04-24T12:45:57;12.30;;;4.90;;
68870;SDS011;55906;52.278;6.808;2023-04-24T12:48:24;11.82;;;4.97;;
68870;SDS011;55906;52.278;6.808;2023-04-24T12:50:51;8.70;;;5.18;;
68870;SDS011;55906;52.278;6.808;2023-04-24T12:53:17;8.57;;;4.53;;
68870;SDS011;55906;52.278;6.808;2023-04-24T12:55:45;9.33;;;5.27;;
68870;SDS011;55906;52.278;6.808;2023-04-24T12:58:17;8.32;;;4.72;;
68870;SDS011;55906;52.278;6.808;2023-04-24T13:00:45;11.45;;;5.10;;
68870;SDS011;55906;52.278;6.808;2023-04-24T13:03:11;13.65;;;5.90;;
68870;SDS011;55906;52.278;6.808;2023-04-24T13:05:38;7.50;;;4.75;;
68870;SDS011;55906;52.278;6.808;2023-04-24T13:08:05;9.03;;;4.80;;
68870;SDS011;55906;52.278;6.808;2023-04-24T13:10:31;7.28;;;4.78;;
68870;SDS011;55906;52.278;6.808;2023-04-24T13:12:59;6.80;;;3.80;;
68870;SDS011;55906;52.278;6.808;2023-04-24T13:15:26;6.47;;;3.58;;
68870;SDS011;55906;52.278;6.808;2023-04-24T13:17:53;8.38;;;3.70;;
68870;SDS011;55906;52.278;6.808;2023-04-24T13:20:20;7.33;;;4.00;;
68870;SDS011;55906;52.278;6.808;2023-04-24T13:22:46;6.63;;;3.70;;
68870;SDS011;55906;52.278;6.808;2023-04-24T13:25:13;6.38;;;3.45;;
68870;SDS011;55906;52.278;6.808;2023-04-24T13:27:41;7.60;;;3.40;;
68870;SDS011;55906;52.278;6.808;2023-04-24T13:30:10;9.52;;;3.90;;
68870;SDS011;55906;52.278;6.808;2023-04-24T13:32:37;8.63;;;4.10;;
68870;SDS011;55906;52.278;6.808;2023-04-24T13:35:04;5.10;;;3.70;;
68870;SDS011;55906;52.278;6.808;2023-04-24T13:37:31;6.95;;;3.80;;
68870;SDS011;55906;52.278;6.808;2023-04-24T13:39:58;4.60;;;3.80;;
68870;SDS011;55906;52.278;6.808;2023-04-24T13:42:25;6.78;;;4.18;;
68870;SDS011;55906;52.278;6.808;2023-04-24T13:44:51;5.10;;;3.60;;
68870;SDS011;55906;52.278;6.808;2023-04-24T13:47:20;5.38;;;4.00;;
68870;SDS011;55906;52.278;6.808;2023-04-24T13:49:47;7.15;;;3.65;;
68870;SDS011;55906;52.278;6.808;2023-04-24T13:52:13;7.32;;;3.38;;
68870;SDS011;55906;52.278;6.808;2023-04-24T13:54:40;6.70;;;3.45;;
68870;SDS011;55906;52.278;6.808;2023-04-24T13:57:07;4.87;;;4.10;;
68870;SDS011;55906;52.278;6.808;2023-04-24T13:59:33;4.60;;;3.78;;
68870;SDS011;55906;52.278;6.808;2023-04-24T14:02:00;6.53;;;3.30;;
68870;SDS011;55906;52.278;6.808;2023-04-24T14:04:28;5.57;;;3.08;;
68870;SDS011;55906;52.278;6.808;2023-04-24T14:06:55;5.90;;;3.28;;
68870;SDS011;55906;52.278;6.808;2023-04-24T14:09:22;4.60;;;2.83;;
68870;SDS011;55906;52.278;6.808;2023-04-24T14:11:48;4.45;;;3.00;;
68870;SDS011;55906;52.278;6.808;2023-04-24T14:14:15;5.95;;;3.13;;
68870;SDS011;55906;52.278;6.808;2023-04-24T14:16:42;7.70;;;3.35;;
68870;SDS011;55906;52.278;6.808;2023-04-24T14:19:08;5.90;;;3.55;;
68870;SDS011;55906;52.278;6.808;2023-04-24T14:21:36;7.87;;;3.00;;
68870;SDS011;55906;52.278;6.808;2023-04-24T14:24:03;4.05;;;3.17;;
68870;SDS011;55906;52.278;6.808;2023-04-24T14:26:30;5.90;;;3.78;;
68870;SDS011;55906;52.278;6.808;2023-04-24T14:28:57;5.88;;;2.92;;
68870;SDS011;55906;52.278;6.808;2023-04-24T14:31:24;6.00;;;3.00;;
68870;SDS011;55906;52.278;6.808;2023-04-24T14:33:51;5.53;;;2.90;;
68870;SDS011;55906;52.278;6.808;2023-04-24T14:36:18;6.50;;;2.78;;
68870;SDS011;55906;52.278;6.808;2023-04-24T14:38:46;8.10;;;3.33;;